Time;durP1;ratioP1;P1;durP2;ratioP2;P2;SDS_P1;SDS_P2;PMS_P1;PMS_P2;Temp;Humidity;BMP_temperature;BMP_pressure;BME280_temperature;BME280_humidity;BME280_pressure;Samples;Min_cycle;Max_cycle;Signal;HPM_P1;HPM_P2
2021/06/27 04:00:41;;;;;;;11.43;10.43;;;18.80;99.90;;;;;;5843821;23;21636;-61
2021/06/27 04:03:07;;;;;;;11.23;10.43;;;18.80;99.90;;;;;;4981593;28;20465;-62
2021/06/27 04:05:34;;;;;;;12.37;11.33;;;18.90;99.90;;;;;;4985288;28;20454;-62
2021/06/27 04:08:03;;;;;;;12.37;11.47;;;18.80;99.90;;;;;;4986001;28;20446;-62
2021/06/27 04:10:30;;;;;;;11.80;10.90;;;18.70;99.90;;;;;;4984996;28;20485;-63
2021/06/27 04:12:56;;;;;;;12.37;11.33;;;18.70;99.90;;;;;;4978939;28;20455;-63
2021/06/27 04:15:23;;;;;;;12.50;11.40;;;18.70;99.90;;;;;;4980052;28;20453;-63
2021/06/27 04:17:51;;;;;;;11.73;10.13;;;18.80;99.90;;;;;;4975400;28;20482;-63
2021/06/27 04:20:18;;;;;;;12.63;11.53;;;18.80;99.90;;;;;;4975027;28;20465;-63
2021/06/27 04:22:44;;;;;;;11.73;10.73;;;18.80;99.90;;;;;;4974956;28;20458;-63
2021/06/27 04:25:12;;;;;;;13.23;12.00;;;18.90;99.90;;;;;;4976588;28;20569;-61
2021/06/27 04:27:39;;;;;;;11.80;10.90;;;19.10;99.90;;;;;;4976708;28;20458;-64
2021/06/27 04:30:08;;;;;;;12.43;11.37;;;19.10;99.90;;;;;;4977842;28;20454;-62
2021/06/27 04:32:34;;;;;;;12.50;11.60;;;19.20;99.90;;;;;;4980341;28;20481;-62
2021/06/27 04:35:03;;;;;;;12.63;11.63;;;19.10;99.90;;;;;;4979253;28;20458;-63
2021/06/27 04:37:32;;;;;;;11.40;10.40;;;19.20;99.90;;;;;;4978750;28;20474;-62
2021/06/27 04:39:58;;;;;;;12.80;11.80;;;19.30;99.90;;;;;;4978907;28;20516;-63
2021/06/27 04:42:25;;;;;;;13.70;12.40;;;19.30;99.90;;;;;;4978753;28;20483;-61
2021/06/27 04:44:52;;;;;;;12.23;11.03;;;19.40;99.90;;;;;;4979691;28;20466;-62
2021/06/27 04:47:19;;;;;;;12.90;11.80;;;19.40;99.90;;;;;;4978536;28;20454;-62
2021/06/27 04:49:45;;;;;;;11.57;10.60;;;19.50;99.90;;;;;;4978498;28;20461;-63
2021/06/27 04:52:13;;;;;;;12.27;11.37;;;19.50;99.90;;;;;;4978364;28;20482;-62
2021/06/27 04:54:40;;;;;;;10.70;9.90;;;19.50;99.90;;;;;;4978390;28;20496;-62
2021/06/27 04:57:07;;;;;;;11.47;10.50;;;19.70;99.90;;;;;;4978207;28;20824;-63
2021/06/27 04:59:34;;;;;;;11.07;10.17;;;19.70;99.90;;;;;;4978411;28;20483;-61
2021/06/27 05:02:01;;;;;;;11.30;10.20;;;19.80;99.90;;;;;;4978731;28;20512;-63
2021/06/27 05:04:28;;;;;;;10.20;9.50;;;19.80;99.90;;;;;;4978275;28;20960;-62
2021/06/27 05:06:54;;;;;;;11.30;10.50;;;19.90;99.90;;;;;;4978160;28;20455;-62
2021/06/27 05:09:22;;;;;;;10.57;9.63;;;19.90;99.90;;;;;;4978245;28;20462;-62
2021/06/27 05:11:49;;;;;;;11.43;10.53;;;20.00;99.90;;;;;;4977913;28;20478;-62
2021/06/27 05:14:16;;;;;;;10.87;9.93;;;20.10;99.90;;;;;;4978038;28;20454;-62
2021/06/27 05:16:43;;;;;;;11.67;10.63;;;20.10;99.90;;;;;;4977973;28;20478;-62
2021/06/27 05:19:09;;;;;;;10.57;9.87;;;20.20;99.90;;;;;;4978528;28;20458;-62
2021/06/27 05:21:36;;;;;;;11.03;9.87;;;20.20;99.90;;;;;;4977871;28;20485;-64
2021/06/27 05:24:03;;;;;;;9.20;8.50;;;20.10;99.90;;;;;;4977403;28;20961;-61
2021/06/27 05:26:31;;;;;;;9.00;8.30;;;20.10;99.90;;;;;;4977772;28;20459;-63
2021/06/27 05:28:58;;;;;;;10.70;9.83;;;20.00;99.90;;;;;;4977318;28;20942;-63
2021/06/27 05:31:24;;;;;;;9.47;8.77;;;20.20;99.90;;;;;;4977340;28;20990;-63
2021/06/27 05:33:51;;;;;;;9.43;8.77;;;20.20;99.90;;;;;;4977601;28;20458;-63
2021/06/27 05:36:18;;;;;;;9.87;9.00;;;20.40;99.90;;;;;;4977529;28;20458;-64
2021/06/27 05:38:45;;;;;;;9.53;8.83;;;20.50;99.90;;;;;;4977485;28;20501;-62
2021/06/27 05:41:12;;;;;;;10.70;10.00;;;20.70;99.90;;;;;;4977048;28;20481;-63
2021/06/27 05:43:40;;;;;;;9.77;8.83;;;20.70;99.90;;;;;;4977845;28;20459;-62
2021/06/27 05:46:06;;;;;;;10.13;9.43;;;20.70;99.90;;;;;;4983937;28;20450;-63
2021/06/27 05:48:33;;;;;;;11.00;10.20;;;20.80;99.90;;;;;;4983484;28;20451;-62
2021/06/27 05:51:00;;;;;;;12.00;11.10;;;20.80;99.90;;;;;;4977271;28;20474;-62
2021/06/27 05:53:26;;;;;;;12.10;11.10;;;20.80;99.90;;;;;;4977112;28;20450;-62
2021/06/27 05:58:34;;;;;;;12.33;11.33;;;21.00;99.90;;;;;;4976874;28;20570;-63
2021/06/27 06:01:02;;;;;;;10.50;9.80;;;21.00;99.90;;;;;;4976984;28;20479;-61
2021/06/27 06:03:28;;;;;;;10.83;10.00;;;21.10;99.90;;;;;;4977068;28;20937;-62
2021/06/27 06:05:55;;;;;;;10.30;9.60;;;21.20;99.90;;;;;;4976930;28;20482;-62
2021/06/27 06:08:22;;;;;;;9.50;8.80;;;21.30;99.90;;;;;;4977153;28;20459;-61
2021/06/27 06:10:48;;;;;;;10.20;9.40;;;21.30;99.90;;;;;;4976811;28;20475;-62
2021/06/27 06:13:15;;;;;;;9.50;8.73;;;21.40;99.90;;;;;;4976486;28;20459;-62
2021/06/27 06:15:42;;;;;;;8.97;8.27;;;21.40;99.90;;;;;;4977019;28;20466;-62
2021/06/27 06:18:10;;;;;;;8.90;8.10;;;21.60;99.90;;;;;;4977250;28;20479;-63
2021/06/27 06:20:36;;;;;;;8.17;7.57;;;21.70;99.90;;;;;;4976771;28;20481;-62
2021/06/27 06:23:03;;;;;;;9.87;9.00;;;21.90;99.90;;;;;;4979442;28;20556;-62
2021/06/27 06:25:30;;;;;;;9.40;8.70;;;22.10;99.90;;;;;;4981838;28;20911;-62
2021/06/27 06:27:57;;;;;;;10.63;8.40;;;22.30;99.90;;;;;;4976627;28;20454;-61
2021/06/27 06:30:24;;;;;;;10.37;9.57;;;22.40;99.90;;;;;;4976450;28;20461;-62
2021/06/27 06:32:51;;;;;;;9.10;8.13;;;22.60;99.90;;;;;;4976614;28;20461;-62
2021/06/27 06:35:19;;;;;;;9.10;8.40;;;22.70;99.90;;;;;;4976429;28;20509;-63
2021/06/27 06:37:45;;;;;;;9.10;8.40;;;22.80;99.90;;;;;;4976282;28;20481;-62
2021/06/27 06:40:13;;;;;;;9.43;8.83;;;22.90;99.90;;;;;;4976224;28;20599;-62
2021/06/27 06:42:39;;;;;;;8.57;7.67;;;23.10;99.90;;;;;;4976017;28;20459;-62
2021/06/27 06:45:07;;;;;;;9.30;8.60;;;23.20;99.90;;;;;;4976414;28;20510;-62
2021/06/27 06:47:34;;;;;;;7.90;7.40;;;23.30;99.90;;;;;;4976239;28;20454;-62
2021/06/27 06:50:01;;;;;;;8.60;7.83;;;23.40;99.90;;;;;;4976170;28;20468;-62
2021/06/27 06:52:29;;;;;;;7.73;7.13;;;23.70;99.90;;;;;;4975693;28;20485;-62
2021/06/27 06:54:55;;;;;;;7.80;7.30;;;23.90;99.90;;;;;;4975936;28;20454;-62
2021/06/27 06:57:22;;;;;;;8.63;8.00;;;24.10;99.90;;;;;;4975856;28;21039;-62
2021/06/27 06:59:49;;;;;;;7.10;6.60;;;24.30;99.90;;;;;;4975791;28;20938;-62
2021/06/27 07:02:15;;;;;;;7.00;6.47;;;24.80;99.90;;;;;;4975848;28;20497;-62
2021/06/27 07:04:42;;;;;;;8.00;7.60;;;25.30;99.90;;;;;;4976046;28;20461;-67
2021/06/27 07:07:09;;;;;;;8.37;7.67;;;25.70;99.90;;;;;;4976275;28;20455;-63
2021/06/27 07:09:37;;;;;;;7.70;7.00;;;25.90;99.90;;;;;;4975751;28;20812;-63
2021/06/27 07:12:04;;;;;;;8.20;7.63;;;26.30;99.90;;;;;;4976359;28;20519;-62
2021/06/27 07:14:31;;;;;;;7.57;6.97;;;26.60;99.90;;;;;;4976970;28;20454;-62
2021/06/27 07:16:57;;;;;;;8.10;7.30;;;27.00;99.90;;;;;;4976333;28;20454;-63
2021/06/27 07:19:24;;;;;;;7.17;6.77;;;27.40;99.90;;;;;;4976017;28;20454;-64
2021/06/27 07:21:51;;;;;;;7.27;6.77;;;27.50;99.90;;;;;;4975837;28;20486;-64
2021/06/27 07:24:17;;;;;;;6.50;6.10;;;27.60;99.90;;;;;;4976660;28;20443;-63
2021/06/27 07:26:47;;;;;;;6.73;6.33;;;27.10;99.90;;;;;;4976249;28;20531;-63
2021/06/27 07:29:13;;;;;;;6.30;5.90;;;28.00;99.90;;;;;;4975686;28;20451;-62
2021/06/27 07:31:40;;;;;;;6.70;6.10;;;28.50;99.90;;;;;;4975636;28;20485;-62
2021/06/27 07:34:07;;;;;;;7.50;6.90;;;29.10;99.90;;;;;;4975177;28;20954;-63
2021/06/27 07:36:34;;;;;;;6.77;6.17;;;29.70;99.90;;;;;;4975553;28;20458;-62
2021/06/27 07:39:01;;;;;;;5.20;4.90;;;30.50;99.90;;;;;;4974365;28;20453;-61
2021/06/27 07:41:27;;;;;;;7.40;6.90;;;31.00;99.90;;;;;;4975281;28;20226;-62
2021/06/27 07:43:56;;;;;;;6.23;5.87;;;31.20;98.10;;;;;;4976320;28;20450;-61
2021/06/27 07:46:22;;;;;;;6.20;5.80;;;31.20;97.50;;;;;;4975687;28;20438;-62
2021/06/27 07:48:49;;;;;;;6.50;6.10;;;30.90;96.90;;;;;;4975344;28;20937;-62
2021/06/27 07:51:16;;;;;;;6.33;5.93;;;30.40;97.60;;;;;;4976103;28;20474;-61
2021/06/27 07:53:42;;;;;;;6.33;5.70;;;30.40;98.00;;;;;;4976086;28;20451;-62
2021/06/27 07:56:09;;;;;;;6.80;6.20;;;30.90;97.80;;;;;;4974965;28;20950;-61
2021/06/27 07:58:36;;;;;;;6.23;5.83;;;31.50;95.60;;;;;;4975216;28;20483;-61
2021/06/27 08:01:04;;;;;;;7.13;6.73;;;31.50;97.20;;;;;;4974938;28;20505;-62
2021/06/27 08:03:31;;;;;;;6.10;5.60;;;31.40;96.00;;;;;;4975566;28;20462;-62
2021/06/27 08:05:58;;;;;;;5.60;5.40;;;32.00;94.10;;;;;;4977431;28;20957;-62
2021/06/27 08:08:24;;;;;;;5.77;5.47;;;32.60;92.90;;;;;;4979382;28;20451;-62
2021/06/27 08:10:51;;;;;;;9.57;5.70;;;32.30;93.60;;;;;;4979609;28;20482;-61
2021/06/27 08:13:18;;;;;;;6.27;5.90;;;32.40;93.10;;;;;;4979433;28;20465;-62
2021/06/27 08:15:45;;;;;;;8.60;8.00;;;32.30;92.80;;;;;;4979154;28;20470;-62
2021/06/27 08:18:13;;;;;;;6.73;6.00;;;32.40;92.50;;;;;;4978985;28;20489;-61
2021/06/27 08:20:40;;;;;;;9.43;7.70;;;32.90;93.20;;;;;;4979090;28;20478;-62
2021/06/27 08:23:06;;;;;;;6.90;6.30;;;33.20;92.40;;;;;;4978697;28;20466;-62
2021/06/27 08:25:33;;;;;;;7.00;6.37;;;33.80;91.10;;;;;;4978850;28;20465;-62
2021/06/27 08:28:01;;;;;;;6.40;6.10;;;34.10;91.40;;;;;;4978862;28;20457;-61
2021/06/27 08:30:28;;;;;;;7.10;5.37;;;34.00;90.30;;;;;;4980536;28;20454;-62
2021/06/27 08:32:54;;;;;;;8.17;5.93;;;33.80;89.70;;;;;;4981039;28;20441;-62
2021/06/27 08:35:23;;;;;;;6.30;5.50;;;34.20;88.40;;;;;;4980566;28;20469;-61
2021/06/27 08:37:52;;;;;;;5.53;5.03;;;33.90;89.40;;;;;;4980805;28;20478;-64
2021/06/27 08:40:20;;;;;;;5.80;5.30;;;34.00;84.60;;;;;;4978930;28;20471;-61
2021/06/27 08:42:48;;;;;;;4.90;4.70;;;34.10;86.60;;;;;;4979219;28;20450;-61
2021/06/27 08:45:17;;;;;;;5.40;5.00;;;34.70;84.00;;;;;;4978623;28;20529;-62
2021/06/27 08:47:44;;;;;;;5.90;5.13;;;34.80;79.90;;;;;;4978255;28;20450;-62
2021/06/27 08:50:13;;;;;;;4.20;4.00;;;34.80;80.00;;;;;;4977995;28;20912;-61
2021/06/27 08:52:43;;;;;;;4.93;4.73;;;35.00;77.00;;;;;;4978326;28;20458;-61
2021/06/27 08:55:11;;;;;;;5.17;4.87;;;34.30;78.40;;;;;;4978422;28;20446;-63
2021/06/27 08:57:40;;;;;;;5.70;5.30;;;34.20;76.80;;;;;;4978374;28;20454;-62
2021/06/27 09:00:09;;;;;;;4.90;4.60;;;34.00;80.10;;;;;;4978471;28;20531;-61
2021/06/27 09:02:36;;;;;;;4.60;4.30;;;34.10;76.30;;;;;;4978354;28;20521;-62
2021/06/27 09:05:03;;;;;;;4.40;4.20;;;34.60;75.00;;;;;;4977907;28;20795;-62
2021/06/27 09:07:32;;;;;;;3.70;3.60;;;34.80;73.40;;;;;;4978137;28;20454;-62
2021/06/27 09:10:04;;;;;;;4.30;4.10;;;34.70;71.80;;;;;;4979139;28;20458;-61
2021/06/27 09:12:46;;;;;;;4.43;4.23;;;34.90;74.90;;;;;;4978049;28;20481;-61
2021/06/27 09:15:14;;;;;;;3.97;3.77;;;35.20;76.50;;;;;;4976245;28;20945;-61
2021/06/27 09:17:43;;;;;;;4.77;4.47;;;35.20;71.70;;;;;;4983724;28;20453;-61
2021/06/27 09:20:11;;;;;;;4.33;4.03;;;35.00;73.40;;;;;;4985487;28;20458;-61
2021/06/27 09:22:40;;;;;;;3.30;3.20;;;35.20;74.30;;;;;;4989991;28;20458;-61
2021/06/27 09:25:23;;;;;;;3.60;3.40;;;35.60;69.70;;;;;;4981425;28;20457;-60
2021/06/27 09:28:05;;;;;;;3.70;3.60;;;35.20;66.90;;;;;;4979141;28;20848;-62
2021/06/27 09:30:33;;;;;;;3.90;3.70;;;35.30;69.40;;;;;;4977783;28;20482;-63
2021/06/27 09:33:03;;;;;;;6.00;3.53;;;35.20;65.70;;;;;;4977554;28;20461;-62
2021/06/27 09:35:38;;;;;;;3.57;3.43;;;35.20;67.20;;;;;;4977917;28;20480;-62
2021/06/27 09:38:22;;;;;;;4.23;3.87;;;35.40;63.90;;;;;;4977473;28;20477;-61
2021/06/27 09:40:52;;;;;;;3.67;3.47;;;35.20;64.60;;;;;;4977535;28;20896;-62
2021/06/27 09:43:20;;;;;;;3.40;3.20;;;35.60;68.80;;;;;;4977380;28;20449;-63
2021/06/27 09:45:48;;;;;;;4.10;3.90;;;35.70;65.20;;;;;;4977085;28;20937;-61
2021/06/27 09:48:15;;;;;;;3.60;3.40;;;36.10;62.40;;;;;;4977328;28;20447;-62
2021/06/27 09:50:42;;;;;;;3.60;3.30;;;35.40;62.20;;;;;;4976979;28;20811;-62
2021/06/27 09:53:31;;;;;;;3.73;3.53;;;35.00;63.30;;;;;;4977286;28;20858;-62
2021/06/27 09:56:00;;;;;;;4.20;3.90;;;35.40;62.30;;;;;;4977954;28;20437;-62
2021/06/27 09:58:27;;;;;;;3.60;3.40;;;35.80;63.10;;;;;;4977481;28;20472;-64
2021/06/27 10:00:56;;;;;;;3.70;3.50;;;36.10;60.40;;;;;;4977559;28;20486;-63
2021/06/27 10:03:23;;;;;;;4.70;4.50;;;36.20;62.00;;;;;;4977719;28;20466;-63
2021/06/27 10:05:50;;;;;;;4.17;3.97;;;36.30;62.40;;;;;;4977927;28;20464;-63
2021/06/27 10:08:29;;;;;;;4.07;3.77;;;36.40;59.20;;;;;;4977881;28;20481;-64
2021/06/27 10:11:15;;;;;;;3.63;3.43;;;36.50;59.10;;;;;;4977125;28;20473;-62
2021/06/27 10:13:46;;;;;;;3.00;2.90;;;36.90;61.80;;;;;;4977697;28;20442;-63
2021/06/27 10:16:16;;;;;;;3.50;3.30;;;36.70;55.90;;;;;;4977876;28;20505;-65
2021/06/27 10:18:43;;;;;;;3.53;3.43;;;36.10;56.70;;;;;;4977058;28;20536;-64
2021/06/27 10:21:11;;;;;;;3.63;3.43;;;36.00;58.80;;;;;;4977269;28;20474;-65
2021/06/27 10:23:38;;;;;;;3.30;3.20;;;35.50;60.50;;;;;;4977186;28;20462;-64
2021/06/27 10:26:05;;;;;;;3.17;3.07;;;35.60;59.50;;;;;;4977439;28;20461;-65
2021/06/27 10:28:34;;;;;;;3.77;3.03;;;35.70;59.90;;;;;;4977350;28;20462;-64
2021/06/27 10:31:01;;;;;;;3.10;3.00;;;35.60;58.70;;;;;;4977313;28;20478;-65
2021/06/27 10:33:28;;;;;;;3.17;3.07;;;35.40;58.90;;;;;;4977139;28;20458;-64
2021/06/27 10:35:55;;;;;;;3.50;3.30;;;35.20;58.40;;;;;;4976891;28;20454;-64
2021/06/27 10:38:25;;;;;;;2.87;2.70;;;35.30;58.70;;;;;;4976975;28;20477;-65
2021/06/27 10:40:54;;;;;;;3.43;3.23;;;35.10;56.80;;;;;;4976669;28;20478;-64
2021/06/27 10:43:21;;;;;;;3.40;3.30;;;34.60;59.30;;;;;;4976444;28;20455;-63
2021/06/27 10:46:01;;;;;;;3.27;3.17;;;34.00;59.30;;;;;;4976573;28;20454;-63
2021/06/27 10:48:40;;;;;;;3.57;3.27;;;33.60;59.00;;;;;;4976589;28;20898;-63
2021/06/27 10:51:12;;;;;;;2.93;2.83;;;33.40;61.60;;;;;;4975997;28;20815;-62
2021/06/27 10:54:11;;;;;;;3.43;3.27;;;33.40;61.80;;;;;;4975884;28;20455;-62
2021/06/27 10:57:03;;;;;;;2.83;2.73;;;33.40;61.20;;;;;;4976809;28;20454;-64
2021/06/27 10:59:56;;;;;;;2.80;2.70;;;33.50;60.40;;;;;;4973068;28;20485;-64
2021/06/27 11:02:36;;;;;;;3.20;3.10;;;33.30;63.90;;;;;;4975855;28;20482;-64
2021/06/27 11:05:39;;;;;;;2.50;2.40;;;33.20;62.50;;;;;;4976461;28;20446;-63
2021/06/27 11:08:07;;;;;;;3.00;2.90;;;34.00;65.80;;;;;;4976118;28;20445;-64
2021/06/27 11:10:35;;;;;;;2.90;2.70;;;34.20;64.10;;;;;;4975552;28;21015;-65
2021/06/27 11:13:19;;;;;;;2.90;2.80;;;34.50;58.50;;;;;;4975707;28;20462;-64
2021/06/27 11:16:19;;;;;;;3.00;2.80;;;34.20;58.60;;;;;;4975806;28;20451;-64
2021/06/27 11:18:51;;;;;;;3.13;3.03;;;34.20;58.80;;;;;;4974442;28;20480;-63
2021/06/27 11:21:21;;;;;;;3.07;2.97;;;33.90;61.40;;;;;;4975816;28;20486;-64
2021/06/27 11:23:53;;;;;;;4.13;3.07;;;33.90;60.10;;;;;;4975687;28;20469;-65
2021/06/27 11:27:06;;;;;;;3.00;2.90;;;33.60;61.30;;;;;;4976798;28;20537;-64
2021/06/27 11:29:47;;;;;;;3.90;3.60;;;33.30;60.00;;;;;;4975688;28;20443;-64
2021/06/27 11:32:44;;;;;;;3.20;3.00;;;33.30;61.70;;;;;;4975413;28;20841;-64
2021/06/27 11:35:40;;;;;;;3.00;2.90;;;32.90;61.50;;;;;;4976003;28;20533;-65
2021/06/27 11:38:07;;;;;;;3.20;3.00;;;32.80;62.00;;;;;;4975919;28;20445;-64
2021/06/27 11:40:42;;;;;;;3.10;2.90;;;32.70;63.40;;;;;;4975332;28;20486;-64
2021/06/27 11:43:08;;;;;;;2.90;2.80;;;32.60;67.00;;;;;;4978777;28;20442;-64
2021/06/27 11:45:44;;;;;;;2.90;2.80;;;32.40;62.40;;;;;;4978997;28;20454;-64
2021/06/27 11:48:11;;;;;;;3.20;3.10;;;32.30;66.20;;;;;;4978345;28;20443;-63
2021/06/27 11:50:48;;;;;;;4.10;3.00;;;32.20;61.30;;;;;;4979274;28;20473;-64
2021/06/27 11:53:14;;;;;;;3.57;3.33;;;32.20;65.50;;;;;;4979472;28;20449;-64
2021/06/27 11:55:43;;;;;;;2.60;2.50;;;32.30;66.60;;;;;;4975528;28;20465;-64
2021/06/27 11:58:17;;;;;;;3.70;3.60;;;32.30;65.00;;;;;;4975253;28;20465;-64
2021/06/27 12:00:46;;;;;;;3.43;3.23;;;32.20;68.60;;;;;;4975920;28;20486;-64
2021/06/27 12:03:14;;;;;;;2.97;2.87;;;32.20;65.90;;;;;;4975084;28;20435;-64
2021/06/27 12:05:51;;;;;;;3.13;2.93;;;32.10;65.90;;;;;;4974986;28;20450;-64
2021/06/27 12:08:18;;;;;;;3.80;3.60;;;31.90;63.10;;;;;;4975181;28;20438;-63
2021/06/27 12:10:45;;;;;;;3.47;3.20;;;31.90;70.80;;;;;;4975140;28;20470;-64
2021/06/27 12:13:12;;;;;;;3.33;3.13;;;31.80;68.20;;;;;;4977696;28;20458;-64
2021/06/27 12:15:41;;;;;;;3.10;3.00;;;31.60;70.80;;;;;;4977856;28;20849;-63
2021/06/27 12:18:10;;;;;;;3.83;3.63;;;31.60;71.50;;;;;;4979748;28;20461;-64
2021/06/27 12:20:42;;;;;;;2.90;2.80;;;31.70;70.30;;;;;;4975225;28;20513;-64
2021/06/27 12:23:12;;;;;;;3.60;3.40;;;31.20;66.60;;;;;;4975051;28;20442;-64
2021/06/27 12:25:41;;;;;;;3.50;3.40;;;31.10;69.90;;;;;;4974812;28;20451;-64
2021/06/27 12:28:09;;;;;;;3.10;2.90;;;31.40;72.80;;;;;;4975041;28;20461;-64
2021/06/27 12:30:39;;;;;;;3.10;2.90;;;31.50;68.70;;;;;;4975515;28;20475;-64
2021/06/27 12:33:09;;;;;;;3.30;3.20;;;31.30;69.30;;;;;;4975688;28;20462;-63
2021/06/27 12:35:39;;;;;;;3.03;2.83;;;31.40;70.10;;;;;;4975184;28;20478;-64
2021/06/27 12:38:06;;;;;;;3.57;3.47;;;31.20;69.80;;;;;;4975874;28;20439;-64
2021/06/27 12:40:39;;;;;;;3.67;3.50;;;31.50;73.10;;;;;;4974585;28;20478;-64
2021/06/27 12:43:30;;;;;;;3.30;3.20;;;31.80;67.30;;;;;;4975014;28;20443;-64
2021/06/27 12:46:20;;;;;;;3.30;3.20;;;32.00;66.60;;;;;;4974654;28;20450;-63
2021/06/27 12:48:49;;;;;;;3.57;3.40;;;31.90;65.00;;;;;;4974777;28;20446;-64
2021/06/27 12:51:21;;;;;;;2.77;2.67;;;31.60;66.70;;;;;;4975600;28;20475;-64
2021/06/27 12:53:56;;;;;;;3.13;2.93;;;31.50;62.20;;;;;;4978388;28;20461;-65
2021/06/27 12:56:24;;;;;;;3.47;3.27;;;31.60;68.50;;;;;;4978260;28;20466;-64
2021/06/27 12:58:55;;;;;;;2.80;2.60;;;31.60;70.40;;;;;;4978184;28;20459;-63
2021/06/27 13:01:22;;;;;;;3.17;2.97;;;31.60;65.10;;;;;;4977928;28;20490;-64
2021/06/27 13:03:57;;;;;;;2.67;2.57;;;31.50;65.10;;;;;;4978176;28;20458;-65
2021/06/27 13:06:23;;;;;;;2.63;2.53;;;31.70;65.30;;;;;;4978648;28;20438;-64
2021/06/27 13:08:50;;;;;;;2.70;2.60;;;31.80;64.20;;;;;;4978205;28;20827;-63
2021/06/27 13:11:17;;;;;;;2.57;2.47;;;31.90;65.50;;;;;;4977882;28;20518;-64
2021/06/27 13:13:45;;;;;;;2.80;2.70;;;31.90;64.60;;;;;;4977993;28;20462;-63
2021/06/27 13:16:16;;;;;;;3.10;2.90;;;31.90;65.40;;;;;;4977888;28;20461;-64
2021/06/27 13:18:43;;;;;;;2.93;2.83;;;31.70;66.10;;;;;;4977846;28;20459;-64
2021/06/27 13:21:20;;;;;;;2.90;2.77;;;31.80;63.60;;;;;;4977697;28;20482;-64
2021/06/27 13:23:47;;;;;;;2.80;2.70;;;31.90;64.20;;;;;;4977971;28;20439;-63
2021/06/27 13:26:16;;;;;;;2.80;2.70;;;31.70;63.10;;;;;;4978051;28;20454;-63
2021/06/27 13:28:47;;;;;;;3.13;2.83;;;31.70;65.10;;;;;;4977953;28;20463;-63
2021/06/27 13:31:16;;;;;;;3.23;3.03;;;31.70;67.80;;;;;;4977195;28;20993;-65
2021/06/27 13:33:46;;;;;;;2.83;2.73;;;31.30;65.90;;;;;;4977483;28;20857;-63
2021/06/27 13:36:15;;;;;;;2.70;2.60;;;31.60;66.30;;;;;;4979219;28;20461;-64
2021/06/27 13:38:45;;;;;;;3.90;3.70;;;31.90;70.30;;;;;;4979993;28;20461;-64
2021/06/27 13:41:17;;;;;;;2.43;2.40;;;32.10;66.90;;;;;;4979843;28;20482;-64
2021/06/27 13:43:46;;;;;;;2.93;2.83;;;32.10;65.20;;;;;;4977729;28;20438;-64
2021/06/27 13:46:13;;;;;;;2.70;2.60;;;32.00;63.70;;;;;;4977599;28;20454;-64
2021/06/27 13:48:39;;;;;;;2.80;2.70;;;32.10;62.10;;;;;;4977296;28;20459;-64
2021/06/27 13:51:07;;;;;;;3.33;3.23;;;32.00;63.20;;;;;;4977330;28;20478;-64
2021/06/27 13:53:34;;;;;;;2.80;2.70;;;31.70;64.60;;;;;;4977159;28;20455;-63
2021/06/27 13:56:16;;;;;;;3.40;3.10;;;31.70;64.30;;;;;;4977248;28;20529;-64
2021/06/27 13:58:43;;;;;;;3.40;3.20;;;31.50;61.90;;;;;;4977434;28;20446;-63
2021/06/27 14:01:12;;;;;;;3.30;2.80;;;31.30;63.70;;;;;;4976832;28;20494;-64
2021/06/27 14:03:39;;;;;;;3.10;2.90;;;31.10;64.00;;;;;;4976299;28;20463;-63
2021/06/27 14:06:06;;;;;;;2.77;2.67;;;30.90;62.40;;;;;;4977060;28;20466;-65
2021/06/27 14:08:33;;;;;;;3.40;3.10;;;30.70;61.50;;;;;;4977111;28;20462;-63
2021/06/27 14:11:02;;;;;;;3.53;3.23;;;30.40;62.00;;;;;;4977362;28;20470;-64
2021/06/27 14:13:29;;;;;;;3.63;3.30;;;30.20;65.90;;;;;;4976888;28;20509;-63
2021/06/27 14:15:56;;;;;;;3.20;3.10;;;30.40;69.10;;;;;;4976784;28;20459;-63
2021/06/27 14:18:25;;;;;;;2.50;2.40;;;30.70;68.30;;;;;;4976808;28;20461;-64
2021/06/27 14:20:52;;;;;;;2.70;2.60;;;30.80;64.80;;;;;;4976609;28;20491;-64
2021/06/27 14:23:19;;;;;;;2.50;2.40;;;30.80;65.60;;;;;;4976660;28;20462;-64
2021/06/27 14:25:46;;;;;;;2.80;2.60;;;31.00;67.50;;;;;;4976531;28;20463;-64
2021/06/27 14:28:12;;;;;;;2.43;2.33;;;30.80;65.50;;;;;;4976555;28;20462;-64
2021/06/27 14:30:39;;;;;;;2.60;2.50;;;31.00;65.00;;;;;;4976192;28;20978;-65
2021/06/27 14:33:06;;;;;;;3.17;2.80;;;31.00;64.10;;;;;;4976602;28;20461;-64
2021/06/27 14:35:34;;;;;;;2.80;2.70;;;31.20;65.40;;;;;;4976566;28;20455;-63
2021/06/27 14:38:01;;;;;;;2.83;2.70;;;31.30;65.00;;;;;;4976843;28;20459;-64
2021/06/27 14:40:28;;;;;;;2.63;2.53;;;31.30;65.10;;;;;;4976203;28;20479;-63
2021/06/27 14:42:54;;;;;;;2.80;2.70;;;31.30;64.00;;;;;;4976398;28;20462;-64
2021/06/27 14:45:21;;;;;;;2.77;2.67;;;31.40;63.30;;;;;;4976075;28;20470;-64
2021/06/27 14:47:48;;;;;;;2.33;2.00;;;31.40;61.10;;;;;;4976138;28;20467;-64
2021/06/27 14:50:15;;;;;;;2.70;2.50;;;31.20;61.00;;;;;;4975953;28;20965;-64
2021/06/27 14:52:44;;;;;;;3.43;3.23;;;31.20;65.00;;;;;;4976096;28;20458;-64
2021/06/27 14:55:11;;;;;;;2.90;2.70;;;31.20;65.00;;;;;;4976338;28;20462;-64
2021/06/27 14:57:38;;;;;;;2.93;2.63;;;31.30;65.60;;;;;;4976098;28;20490;-64
2021/06/27 15:00:06;;;;;;;2.80;2.70;;;31.20;63.50;;;;;;4975924;28;20900;-63
2021/06/27 15:02:33;;;;;;;3.00;2.90;;;31.20;63.20;;;;;;4975337;28;20490;-64
2021/06/27 15:05:00;;;;;;;2.63;2.53;;;31.30;65.40;;;;;;4975558;28;20454;-63
2021/06/27 15:07:26;;;;;;;2.57;2.37;;;31.30;61.00;;;;;;4975810;28;20462;-64
2021/06/27 15:09:55;;;;;;;2.80;2.60;;;31.20;59.80;;;;;;4975881;28;20454;-64
2021/06/27 15:12:21;;;;;;;2.40;2.30;;;31.00;63.70;;;;;;4975857;28;20474;-64
2021/06/27 15:14:48;;;;;;;1.97;1.97;;;30.90;61.70;;;;;;4975268;28;20463;-63
2021/06/27 15:17:15;;;;;;;2.37;2.27;;;30.90;61.80;;;;;;4975602;28;20450;-64
2021/06/27 15:19:41;;;;;;;2.80;2.70;;;30.90;60.50;;;;;;4975508;28;20450;-63
2021/06/27 15:22:08;;;;;;;2.13;2.03;;;31.00;63.20;;;;;;4975543;28;20474;-64
2021/06/27 15:24:35;;;;;;;2.43;2.33;;;30.70;62.80;;;;;;4975543;28;20486;-64
2021/06/27 15:27:04;;;;;;;3.30;3.20;;;30.50;61.50;;;;;;4975425;28;20458;-64
2021/06/27 15:29:30;;;;;;;3.17;3.07;;;30.60;63.00;;;;;;4975090;28;20465;-64
2021/06/27 15:31:59;;;;;;;2.70;2.60;;;30.60;63.00;;;;;;4975053;28;20996;-64
2021/06/27 15:34:28;;;;;;;2.80;2.70;;;30.50;62.40;;;;;;4975399;28;20455;-63
2021/06/27 15:36:55;;;;;;;2.80;2.70;;;30.60;63.80;;;;;;4975346;28;20458;-64
2021/06/27 15:39:23;;;;;;;2.73;2.63;;;30.50;63.70;;;;;;4974960;28;20892;-64
2021/06/27 15:41:50;;;;;;;3.20;2.10;;;30.50;65.00;;;;;;4974681;28;20461;-63
2021/06/27 15:44:19;;;;;;;2.53;2.33;;;30.40;67.10;;;;;;4975787;28;20525;-65
2021/06/27 15:46:46;;;;;;;2.33;2.23;;;30.30;65.10;;;;;;4975224;28;20462;-63
2021/06/27 15:49:14;;;;;;;2.47;2.37;;;30.30;66.60;;;;;;4975253;28;20474;-63
2021/06/27 15:51:41;;;;;;;3.30;3.10;;;30.20;66.20;;;;;;4975469;28;20483;-64
2021/06/27 15:54:12;;;;;;;3.00;2.90;;;30.10;67.70;;;;;;4975950;28;20459;-63
2021/06/27 15:56:40;;;;;;;2.20;2.20;;;30.10;65.20;;;;;;4975625;28;20493;-64
2021/06/27 15:59:06;;;;;;;3.37;3.17;;;30.10;66.20;;;;;;4975465;28;20454;-65
2021/06/27 16:01:34;;;;;;;2.60;2.50;;;30.00;66.40;;;;;;4974863;28;20494;-64
2021/06/27 16:04:01;;;;;;;3.20;3.00;;;30.00;66.00;;;;;;4974672;28;20961;-64
2021/06/27 16:06:28;;;;;;;2.60;2.50;;;30.00;66.30;;;;;;4974970;28;20462;-64
2021/06/27 16:08:56;;;;;;;3.10;3.00;;;29.90;65.40;;;;;;4975013;28;20487;-64
2021/06/27 16:11:23;;;;;;;2.70;2.60;;;29.90;67.40;;;;;;4974563;28;20843;-63
2021/06/27 16:13:52;;;;;;;3.17;2.90;;;29.80;69.40;;;;;;4974980;28;20454;-64
2021/06/27 16:16:20;;;;;;;3.10;2.90;;;29.60;71.40;;;;;;4974886;28;20459;-63
2021/06/27 16:18:51;;;;;;;3.97;3.77;;;29.50;74.20;;;;;;4975554;28;20459;-63
2021/06/27 16:21:20;;;;;;;4.67;3.67;;;29.40;73.30;;;;;;4974774;28;20486;-64
2021/06/27 16:23:49;;;;;;;3.70;3.50;;;29.20;75.70;;;;;;4974926;28;20528;-63
2021/06/27 16:26:19;;;;;;;3.43;3.23;;;29.10;77.50;;;;;;4976078;28;20509;-64
2021/06/27 16:28:48;;;;;;;4.07;3.77;;;29.00;77.70;;;;;;4979336;28;20454;-65
2021/06/27 16:31:16;;;;;;;3.37;3.17;;;28.80;77.70;;;;;;4978678;28;20474;-63
2021/06/27 16:33:43;;;;;;;4.40;4.10;;;28.70;77.50;;;;;;4978840;28;20457;-64
2021/06/27 16:36:11;;;;;;;4.60;4.20;;;28.60;78.50;;;;;;4979452;28;20458;-63
2021/06/27 16:38:38;;;;;;;3.20;2.97;;;28.50;80.60;;;;;;4978731;28;20454;-64
2021/06/27 16:41:04;;;;;;;3.10;3.00;;;28.50;81.90;;;;;;4978100;28;20489;-63
2021/06/27 16:43:31;;;;;;;4.70;4.40;;;28.50;81.10;;;;;;4978988;28;20463;-65
2021/06/27 16:45:58;;;;;;;4.40;4.00;;;28.60;81.30;;;;;;4978471;28;20481;-64
2021/06/27 16:48:25;;;;;;;4.20;4.00;;;28.60;83.00;;;;;;4978371;28;20469;-63
2021/06/27 16:50:52;;;;;;;3.77;3.67;;;28.60;79.40;;;;;;4978208;28;20478;-63
2021/06/27 16:53:20;;;;;;;3.60;3.40;;;28.50;79.40;;;;;;4978483;28;20450;-61
2021/06/27 16:55:50;;;;;;;3.70;3.40;;;28.50;79.30;;;;;;4978194;28;20459;-62